Time;durP1;ratioP1;P1;durP2;ratioP2;P2;SDS_P1;SDS_P2;PMS_P1;PMS_P2;Temp;Humidity;BMP_temperature;BMP_pressure;BME280_temperature;BME280_humidity;BME280_pressure;Samples;Min_cycle;Max_cycle;Signal;HPM_P1;HPM_P2
2023/02/04 00:00:07;;;;;;;;;;;;;;;;;;5096967;28;19957;-74
2023/02/04 00:02:33;;;;;;;;;;;;;;;;;;5097547;28;20388;-74
2023/02/04 00:04:59;;;;;;;;;;;;;;;;;;5097809;28;20445;-73
2023/02/04 00:07:25;;;;;;;;;;;;;;;;;;5097606;28;19908;-74
2023/02/04 00:09:51;;;;;;;;;;;;;;;;;;5097252;28;19974;-73
2023/02/04 00:12:17;;;;;;;;;;;;;;;;;;5097537;28;19915;-74
2023/02/04 00:14:43;;;;;;;;;;;;;;;;;;5097520;28;20275;-74
2023/02/04 00:17:11;;;;;;;;;;;;;;;;;;5097844;28;19914;-74
2023/02/04 00:19:37;;;;;;;;;;;;;;;;;;5097932;28;20277;-74
2023/02/04 00:22:03;;;;;;;;;;;;;;;;;;5096977;28;19934;-74
2023/02/04 00:24:29;;;;;;;;;;;;;;;;;;5097237;28;20007;-73
2023/02/04 00:26:55;;;;;;;;;;;;;;;;;;5097318;28;20345;-74
2023/02/04 00:29:21;;;;;;;;;;;;;;;;;;5096976;28;19931;-74
2023/02/04 00:31:47;;;;;;;;;;;;;;;;;;5097125;28;19908;-74
2023/02/04 00:34:13;;;;;;;;;;;;;;;;;;5096914;28;20007;-73
2023/02/04 00:36:39;;;;;;;;;;;;;;;;;;5096844;28;19912;-74
2023/02/04 00:39:05;;;;;;;;;;;;;;;;;;5097035;28;20057;-74
2023/02/04 00:41:31;;;;;;;;;;;;;;;;;;5095660;28;20280;-74
2023/02/04 00:43:57;;;;;;;;;;;;;;;;;;5096505;28;20394;-74
2023/02/04 00:46:23;;;;;;;;;;;;;;;;;;5095594;28;20378;-74
2023/02/04 00:48:49;;;;;;;;;;;;;;;;;;5097250;28;19966;-74
2023/02/04 00:51:15;;;;;;;;;;;;;;;;;;5096468;28;19912;-74
2023/02/04 00:53:40;;;;;;;;;;;;;;;;;;5096756;28;19916;-73
2023/02/04 00:56:06;;;;;;;;;;;;;;;;;;5096638;28;19908;-74
2023/02/04 00:58:32;;;;;;;;;;;;;;;;;;5096424;28;19915;-73
2023/02/04 01:00:58;;;;;;;;;;;;;;;;;;5096956;28;20425;-74
2023/02/04 01:03:24;;;;;;;;;;;;;;;;;;5096504;28;19909;-74
2023/02/04 01:05:50;;;;;;;;;;;;;;;;;;5095793;28;19912;-73
2023/02/04 01:08:16;;;;;;;;;;;;;;;;;;5096486;28;19963;-74
2023/02/04 01:10:42;;;;;;;;;;;;;;;;;;5096513;28;19915;-74
2023/02/04 01:13:08;;;;;;;;;;;;;;;;;;5095962;28;20026;-74
2023/02/04 01:15:34;;;;;;;;;;;;;;;;;;5096306;28;19912;-73
2023/02/04 01:18:00;;;;;;;;;;;;;;;;;;5095915;28;19912;-74
2023/02/04 01:20:26;;;;;;;;;;;;;;;;;;5094942;28;20041;-73
2023/02/04 01:22:52;;;;;;;;;;;;;;;;;;5096217;28;19908;-74
2023/02/04 01:25:18;;;;;;;;;;;;;;;;;;5094430;28;20280;-73
2023/02/04 01:27:44;;;;;;;;;;;;;;;;;;5096589;28;20424;-74
2023/02/04 01:30:09;;;;;;;;;;;;;;;;;;5096364;28;20352;-74
2023/02/04 01:32:35;;;;;;;;;;;;;;;;;;5095635;28;20392;-73
2023/02/04 01:35:01;;;;;;;;;;;;;;;;;;5095750;28;20417;-73
2023/02/04 01:37:27;;;;;;;;;;;;;;;;;;5095979;28;20003;-74
2023/02/04 01:39:53;;;;;;;;;;;;;;;;;;5094191;28;19908;-74
2023/02/04 01:42:19;;;;;;;;;;;;;;;;;;5096104;28;19908;-74
2023/02/04 01:44:45;;;;;;;;;;;;;;;;;;5095794;28;19908;-73
2023/02/04 01:47:11;;;;;;;;;;;;;;;;;;5095363;28;19972;-74
2023/02/04 01:49:37;;;;;;;;;;;;;;;;;;5093182;28;19915;-73
2023/02/04 01:52:03;;;;;;;;;;;;;;;;;;5094868;28;19933;-73
2023/02/04 01:54:29;;;;;;;;;;;;;;;;;;5094941;28;20018;-73
2023/02/04 01:56:55;;;;;;;;;;;;;;;;;;5095616;28;19908;-74
2023/02/04 01:59:21;;;;;;;;;;;;;;;;;;5095498;28;19916;-74
2023/02/04 02:01:47;;;;;;;;;;;;;;;;;;5095120;28;19951;-73
2023/02/04 02:04:13;;;;;;;;;;;;;;;;;;5095452;28;19908;-73
2023/02/04 02:06:39;;;;;;;;;;;;;;;;;;5095564;28;19908;-74
2023/02/04 02:09:04;;;;;;;;;;;;;;;;;;5094946;28;19909;-74
2023/02/04 02:11:30;;;;;;;;;;;;;;;;;;5095256;28;19994;-74
2023/02/04 02:13:56;;;;;;;;;;;;;;;;;;5095183;28;19920;-74
2023/02/04 02:16:22;;;;;;;;;;;;;;;;;;5094777;28;19908;-73
2023/02/04 02:18:48;;;;;;;;;;;;;;;;;;5094221;28;19912;-74
2023/02/04 02:21:14;;;;;;;;;;;;;;;;;;5094681;28;19995;-74
2023/02/04 02:23:40;;;;;;;;;;;;;;;;;;5095073;28;19912;-73
2023/02/04 02:26:06;;;;;;;;;;;;;;;;;;5094949;28;19922;-74
2023/02/04 02:28:32;;;;;;;;;;;;;;;;;;5095010;28;19909;-74
2023/02/04 02:30:58;;;;;;;;;;;;;;;;;;5094867;28;19908;-74
2023/02/04 02:33:25;;;;;;;;;;;;;;;;;;5094658;28;20026;-73
2023/02/04 02:35:51;;;;;;;;;;;;;;;;;;5094663;28;19995;-72
2023/02/04 02:38:17;;;;;;;;;;;;;;;;;;5094799;28;20349;-73
2023/02/04 02:40:42;;;;;;;;;;;;;;;;;;5094702;28;20330;-74
2023/02/04 02:43:08;;;;;;;;;;;;;;;;;;5094289;28;19947;-73
2023/02/04 02:45:34;;;;;;;;;;;;;;;;;;5094609;28;20372;-73
2023/02/04 02:48:03;;;;;;;;;;;;;;;;;;5094940;28;20006;-74
2023/02/04 02:50:29;;;;;;;;;;;;;;;;;;5092815;28;19908;-74
2023/02/04 02:52:55;;;;;;;;;;;;;;;;;;5094629;28;20015;-73
2023/02/04 02:55:21;;;;;;;;;;;;;;;;;;5094580;28;19916;-74
2023/02/04 02:57:47;;;;;;;;;;;;;;;;;;5094061;28;19908;-74
2023/02/04 03:00:13;;;;;;;;;;;;;;;;;;5094811;28;19912;-74
2023/02/04 03:02:39;;;;;;;;;;;;;;;;;;5094356;28;19908;-73
2023/02/04 03:05:05;;;;;;;;;;;;;;;;;;5093921;28;19908;-74
2023/02/04 03:07:31;;;;;;;;;;;;;;;;;;5094309;28;19988;-71
2023/02/04 03:09:57;;;;;;;;;;;;;;;;;;5094225;28;19919;-73
2023/02/04 03:12:23;;;;;;;;;;;;;;;;;;5093911;28;20342;-74
2023/02/04 03:14:49;;;;;;;;;;;;;;;;;;5094125;28;19942;-74
2023/02/04 03:17:15;;;;;;;;;;;;;;;;;;5094119;28;19974;-74
2023/02/04 03:19:41;;;;;;;;;;;;;;;;;;5093718;28;19909;-72
2023/02/04 03:22:07;;;;;;;;;;;;;;;;;;5094028;28;19916;-72
2023/02/04 03:24:33;;;;;;;;;;;;;;;;;;5093878;28;19930;-72
2023/02/04 03:26:59;;;;;;;;;;;;;;;;;;5094624;28;19908;-73
2023/02/04 03:29:25;;;;;;;;;;;;;;;;;;5093917;28;19908;-73
2023/02/04 03:31:51;;;;;;;;;;;;;;;;;;5093623;28;19908;-73
2023/02/04 03:34:16;;;;;;;;;;;;;;;;;;5093849;28;19924;-72
2023/02/04 03:36:42;;;;;;;;;;;;;;;;;;5093933;28;20391;-73
2023/02/04 03:39:08;;;;;;;;;;;;;;;;;;5093509;28;20372;-73
2023/02/04 03:41:34;;;;;;;;;;;;;;;;;;5093828;28;19915;-73
2023/02/04 03:44:00;;;;;;;;;;;;;;;;;;5092585;28;19919;-72
2023/02/04 03:46:27;;;;;;;;;;;;;;;;;;5093787;28;20375;-72
2023/02/04 03:48:53;;;;;;;;;;;;;;;;;;5093778;28;19913;-72
2023/02/04 03:51:19;;;;;;;;;;;;;;;;;;5093751;28;19974;-73
2023/02/04 03:53:45;;;;;;;;;;;;;;;;;;5093298;28;20007;-73
2023/02/04 03:56:11;;;;;;;;;;;;;;;;;;5093720;28;19908;-72
2023/02/04 03:58:37;;;;;;;;;;;;;;;;;;5093929;28;19915;-72
2023/02/04 04:01:03;;;;;;;;;;;;;;;;;;5093244;28;19908;-74
2023/02/04 04:03:29;;;;;;;;;;;;;;;;;;5093671;28;20000;-72
2023/02/04 04:05:55;;;;;;;;;;;;;;;;;;5093611;28;20014;-73
2023/02/04 04:08:21;;;;;;;;;;;;;;;;;;5093212;28;20265;-73
2023/02/04 04:10:47;;;;;;;;;;;;;;;;;;5093587;28;20397;-73
2023/02/04 04:13:12;;;;;;;;;;;;;;;;;;5093732;28;19908;-73
2023/02/04 04:15:38;;;;;;;;;;;;;;;;;;5093185;28;19913;-73
2023/02/04 04:18:05;;;;;;;;;;;;;;;;;;5093532;28;20284;-73
2023/02/04 04:20:31;;;;;;;;;;;;;;;;;;5094031;28;19977;-72
2023/02/04 04:22:57;;;;;;;;;;;;;;;;;;5093111;28;20386;-72
2023/02/04 04:25:23;;;;;;;;;;;;;;;;;;5093388;28;19908;-73
2023/02/04 04:27:49;;;;;;;;;;;;;;;;;;5091736;28;19991;-73
2023/02/04 04:30:15;;;;;;;;;;;;;;;;;;5093442;28;19908;-73
2023/02/04 04:32:40;;;;;;;;;;;;;;;;;;5093420;28;20423;-73
2023/02/04 04:35:06;;;;;;;;;;;;;;;;;;5092672;28;19931;-73
2023/02/04 04:37:34;;;;;;;;;;;;;;;;;;5093727;28;19915;-73
2023/02/04 04:40:00;;;;;;;;;;;;;;;;;;5091966;28;19956;-73
2023/02/04 04:42:26;;;;;;;;;;;;;;;;;;5095732;28;20392;-73
2023/02/04 04:44:52;;;;;;;;;;;;;;;;;;5096963;28;19915;-73
2023/02/04 04:47:18;;;;;;;;;;;;;;;;;;5096946;28;20350;-73
2023/02/04 04:49:44;;;;;;;;;;;;;;;;;;5096748;28;20425;-73
2023/02/04 04:52:10;;;;;;;;;;;;;;;;;;5096859;28;20403;-72
2023/02/04 04:54:36;;;;;;;;;;;;;;;;;;5096643;28;19962;-72
2023/02/04 04:57:02;;;;;;;;;;;;;;;;;;5096285;28;19909;-72
2023/02/04 04:59:27;;;;;;;;;;;;;;;;;;5096789;28;19908;-73
2023/02/04 05:01:53;;;;;;;;;;;;;;;;;;5096748;28;19946;-72
2023/02/04 05:04:19;;;;;;;;;;;;;;;;;;5094902;28;19908;-72
2023/02/04 05:06:45;;;;;;;;;;;;;;;;;;5096857;28;19915;-72
2023/02/04 05:09:11;;;;;;;;;;;;;;;;;;5096484;28;19999;-72
2023/02/04 05:11:37;;;;;;;;;;;;;;;;;;5096196;28;19953;-74
2023/02/04 05:14:04;;;;;;;;;;;;;;;;;;5096591;28;19916;-72
2023/02/04 05:16:29;;;;;;;;;;;;;;;;;;5096497;28;19912;-73
2023/02/04 05:18:55;;;;;;;;;;;;;;;;;;5095925;28;19908;-72
2023/02/04 05:21:21;;;;;;;;;;;;;;;;;;5096321;28;19962;-72
2023/02/04 05:23:47;;;;;;;;;;;;;;;;;;5094993;28;19979;-73
2023/02/04 05:26:13;;;;;;;;;;;;;;;;;;5095748;28;19912;-72
2023/02/04 05:28:39;;;;;;;;;;;;;;;;;;5096534;28;20007;-73
2023/02/04 05:31:05;;;;;;;;;;;;;;;;;;5096186;28;19908;-73
2023/02/04 05:33:31;;;;;;;;;;;;;;;;;;5096148;28;19920;-72
2023/02/04 05:35:57;;;;;;;;;;;;;;;;;;5097054;28;19908;-74
2023/02/04 05:38:23;;;;;;;;;;;;;;;;;;5096071;28;20269;-74
2023/02/04 05:40:49;;;;;;;;;;;;;;;;;;5095872;28;19959;-74
2023/02/04 05:43:15;;;;;;;;;;;;;;;;;;5095820;28;20299;-74
2023/02/04 05:45:41;;;;;;;;;;;;;;;;;;5096019;28;19995;-74
2023/02/04 05:48:07;;;;;;;;;;;;;;;;;;5095778;28;20376;-74
2023/02/04 05:50:33;;;;;;;;;;;;;;;;;;5094364;28;19915;-74
2023/02/04 05:52:58;;;;;;;;;;;;;;;;;;5095336;28;19907;-73
2023/02/04 05:55:24;;;;;;;;;;;;;;;;;;5095544;28;20368;-73
2023/02/04 05:57:50;;;;;;;;;;;;;;;;;;5094317;28;19908;-74
2023/02/04 06:00:16;;;;;;;;;;;;;;;;;;5095206;28;19931;-74
2023/02/04 06:02:42;;;;;;;;;;;;;;;;;;5095546;28;19994;-73
2023/02/04 06:05:08;;;;;;;;;;;;;;;;;;5095498;28;19908;-73
2023/02/04 06:07:34;;;;;;;;;;;;;;;;;;5095053;28;20352;-73
2023/02/04 06:10:00;;;;;;;;;;;;;;;;;;5095642;28;19920;-73
2023/02/04 06:12:26;;;;;;;;;;;;;;;;;;5095320;28;19953;-73
2023/02/04 06:14:52;;;;;;;;;;;;;;;;;;5094891;28;20073;-73
2023/02/04 06:17:18;;;;;;;;;;;;;;;;;;5093978;28;19915;-73
2023/02/04 06:19:44;;;;;;;;;;;;;;;;;;5095164;28;19975;-73
2023/02/04 06:22:10;;;;;;;;;;;;;;;;;;5094718;28;19919;-73
2023/02/04 06:24:36;;;;;;;;;;;;;;;;;;5095040;28;20011;-73
2023/02/04 06:27:02;;;;;;;;;;;;;;;;;;5094926;28;19912;-73
2023/02/04 06:29:27;;;;;;;;;;;;;;;;;;5094572;28;19912;-73
2023/02/04 06:31:53;;;;;;;;;;;;;;;;;;5094862;28;19915;-73
2023/02/04 06:34:19;;;;;;;;;;;;;;;;;;5094330;28;19924;-72
2023/02/04 06:36:45;;;;;;;;;;;;;;;;;;5095056;28;19912;-73
2023/02/04 06:39:11;;;;;;;;;;;;;;;;;;5094709;28;19951;-72
2023/02/04 06:41:37;;;;;;;;;;;;;;;;;;5094382;28;19908;-73
2023/02/04 06:44:03;;;;;;;;;;;;;;;;;;5094823;28;19909;-73
2023/02/04 06:46:29;;;;;;;;;;;;;;;;;;5094597;28;19923;-72
2023/02/04 06:48:55;;;;;;;;;;;;;;;;;;5094199;28;20352;-72
2023/02/04 06:51:21;;;;;;;;;;;;;;;;;;5094538;28;19909;-73
2023/02/04 06:53:47;;;;;;;;;;;;;;;;;;5094476;28;19970;-73
2023/02/04 06:56:13;;;;;;;;;;;;;;;;;;5094409;28;19908;-73
2023/02/04 06:58:39;;;;;;;;;;;;;;;;;;5093154;28;19999;-72
2023/02/04 07:01:05;;;;;;;;;;;;;;;;;;5094446;28;19916;-72
2023/02/04 07:03:31;;;;;;;;;;;;;;;;;;5093914;28;19908;-73
2023/02/04 07:05:57;;;;;;;;;;;;;;;;;;5092988;28;19912;-72
2023/02/04 07:08:23;;;;;;;;;;;;;;;;;;5094343;28;19915;-73
2023/02/04 07:10:48;;;;;;;;;;;;;;;;;;5094075;28;19908;-73
2023/02/04 07:13:14;;;;;;;;;;;;;;;;;;5094186;28;19908;-73
2023/02/04 07:15:40;;;;;;;;;;;;;;;;;;5094699;28;20394;-72
2023/02/04 07:18:06;;;;;;;;;;;;;;;;;;5093707;28;19915;-72
2023/02/04 07:20:32;;;;;;;;;;;;;;;;;;5094159;28;19908;-72
2023/02/04 07:22:58;;;;;;;;;;;;;;;;;;5092757;28;19908;-72
2023/02/04 07:25:24;;;;;;;;;;;;;;;;;;5092426;28;20372;-73
2023/02/04 07:27:50;;;;;;;;;;;;;;;;;;5094060;28;20395;-72
2023/02/04 07:30:16;;;;;;;;;;;;;;;;;;5094057;28;19908;-73
2023/02/04 07:32:42;;;;;;;;;;;;;;;;;;5093584;28;19951;-72
2023/02/04 07:35:08;;;;;;;;;;;;;;;;;;5093748;28;19927;-72
2023/02/04 07:37:34;;;;;;;;;;;;;;;;;;5093948;28;20368;-72
2023/02/04 07:40:00;;;;;;;;;;;;;;;;;;5092240;28;19912;-72
2023/02/04 07:42:27;;;;;;;;;;;;;;;;;;5092623;28;20318;-73
2023/02/04 07:44:52;;;;;;;;;;;;;;;;;;5093530;28;19912;-73
2023/02/04 07:47:18;;;;;;;;;;;;;;;;;;5093836;28;19962;-72
2023/02/04 07:49:44;;;;;;;;;;;;;;;;;;5092730;28;19951;-73
2023/02/04 07:52:11;;;;;;;;;;;;;;;;;;5093582;28;19912;-73
2023/02/04 07:54:37;;;;;;;;;;;;;;;;;;5093656;28;19955;-73
2023/02/04 07:57:03;;;;;;;;;;;;;;;;;;5093768;28;19946;-73
2023/02/04 07:59:29;;;;;;;;;;;;;;;;;;5093276;28;19915;-73
2023/02/04 08:01:55;;;;;;;;;;;;;;;;;;5093794;28;19908;-73
2023/02/04 08:04:20;;;;;;;;;;;;;;;;;;5093649;28;19908;-73
2023/02/04 08:06:46;;;;;;;;;;;;;;;;;;5093511;28;19953;-73
2023/02/04 08:09:12;;;;;;;;;;;;;;;;;;5093645;28;19916;-73
2023/02/04 08:11:38;;;;;;;;;;;;;;;;;;5092350;28;19908;-72
2023/02/04 08:14:04;;;;;;;;;;;;;;;;;;5093149;28;19969;-73
2023/02/04 08:16:30;;;;;;;;;;;;;;;;;;5095135;28;19912;-73
2023/02/04 08:18:56;;;;;;;;;;;;;;;;;;5097561;28;19956;-73
2023/02/04 08:21:22;;;;;;;;;;;;;;;;;;5095770;28;19943;-73
2023/02/04 08:23:48;;;;;;;;;;;;;;;;;;5097490;28;19908;-73
2023/02/04 08:26:14;;;;;;;;;;;;;;;;;;5097527;28;19908;-73
2023/02/04 08:28:40;;;;;;;;;;;;;;;;;;5095632;28;20391;-73
2023/02/04 08:31:06;;;;;;;;;;;;;;;;;;5097233;28;20262;-73
2023/02/04 08:33:32;;;;;;;;;;;;;;;;;;5096916;28;20420;-73
2023/02/04 08:35:58;;;;;;;;;;;;;;;;;;5095471;28;19933;-73
2023/02/04 08:38:24;;;;;;;;;;;;;;;;;;5097108;28;19908;-73
2023/02/04 08:40:50;;;;;;;;;;;;;;;;;;5097064;28;19982;-73
2023/02/04 08:43:16;;;;;;;;;;;;;;;;;;5096592;28;19908;-73
2023/02/04 08:45:41;;;;;;;;;;;;;;;;;;5096930;28;19998;-73
2023/02/04 08:48:08;;;;;;;;;;;;;;;;;;5096476;28;19912;-73
2023/02/04 08:50:34;;;;;;;;;;;;;;;;;;5096849;28;20357;-73
2023/02/04 08:53:00;;;;;;;;;;;;;;;;;;5096038;28;19916;-73
2023/02/04 08:55:26;;;;;;;;;;;;;;;;;;5095960;28;19916;-73
2023/02/04 08:57:52;;;;;;;;;;;;;;;;;;5097306;28;20368;-72
2023/02/04 09:00:18;;;;;;;;;;;;;;;;;;5096162;28;20246;-73
2023/02/04 09:02:44;;;;;;;;;;;;;;;;;;5094926;28;19947;-73
2023/02/04 09:05:10;;;;;;;;;;;;;;;;;;5096518;28;19934;-73
2023/02/04 09:07:35;;;;;;;;;;;;;;;;;;5096555;28;19953;-73
2023/02/04 09:10:01;;;;;;;;;;;;;;;;;;5096486;28;20382;-73
2023/02/04 09:12:27;;;;;;;;;;;;;;;;;;5095157;28;19908;-73
2023/02/04 09:14:53;;;;;;;;;;;;;;;;;;5096280;28;20012;-73
2023/02/04 09:17:19;;;;;;;;;;;;;;;;;;5095351;28;20135;-73
2023/02/04 09:19:45;;;;;;;;;;;;;;;;;;5096580;28;19908;-73
2023/02/04 09:22:12;;;;;;;;;;;;;;;;;;5096367;28;20261;-73
2023/02/04 09:24:38;;;;;;;;;;;;;;;;;;5095793;28;20364;-73
2023/02/04 09:27:04;;;;;;;;;;;;;;;;;;5095846;28;19908;-73
2023/02/04 09:29:29;;;;;;;;;;;;;;;;;;5096189;28;19919;-73
2023/02/04 09:31:56;;;;;;;;;;;;;;;;;;5095696;28;20356;-73
2023/02/04 09:34:22;;;;;;;;;;;;;;;;;;5095950;28;20292;-74
2023/02/04 09:36:48;;;;;;;;;;;;;;;;;;5094849;28;19908;-74
2023/02/04 09:39:14;;;;;;;;;;;;;;;;;;5094116;28;19999;-74
2023/02/04 09:41:40;;;;;;;;;;;;;;;;;;5095373;28;19935;-74
2023/02/04 09:44:06;;;;;;;;;;;;;;;;;;5095486;28;19908;-74
2023/02/04 09:46:32;;;;;;;;;;;;;;;;;;5095089;28;19954;-74
2023/02/04 09:48:58;;;;;;;;;;;;;;;;;;5094905;28;19912;-74
2023/02/04 09:51:24;;;;;;;;;;;;;;;;;;5092716;28;19919;-74
2023/02/04 09:53:52;;;;;;;;;;;;;;;;;;5095365;28;20018;-74
2023/02/04 09:56:18;;;;;;;;;;;;;;;;;;5094291;28;20364;-74
2023/02/04 09:58:44;;;;;;;;;;;;;;;;;;5095245;28;19908;-74
2023/02/04 10:01:10;;;;;;;;;;;;;;;;;;5094320;28;19995;-74
2023/02/04 10:03:36;;;;;;;;;;;;;;;;;;5095837;28;19908;-74
2023/02/04 10:06:02;;;;;;;;;;;;;;;;;;5095217;28;19961;-74
2023/02/04 10:08:28;;;;;;;;;;;;;;;;;;5095232;28;19961;-74
2023/02/04 10:10:54;;;;;;;;;;;;;;;;;;5074675;28;19966;-73
2023/02/04 10:13:20;;;;;;;;;;;;;;;;;;5072829;28;19919;-74
2023/02/04 10:15:46;;;;;;;;;;;;;;;;;;5072303;28;19924;-74
2023/02/04 10:18:12;;;;;;;;;;;;;;;;;;5074081;28;19961;-73
2023/02/04 10:20:37;;;;;;;;;;;;;;;;;;5074061;28;19908;-73
2023/02/04 10:23:03;;;;;;;;;;;;;;;;;;5073255;28;19909;-74
2023/02/04 10:25:29;;;;;;;;;;;;;;;;;;5073358;28;19915;-74
2023/02/04 10:27:56;;;;;;;;;;;;;;;;;;5073007;28;20045;-73
2023/02/04 10:30:21;;;;;;;;;;;;;;;;;;5072655;28;19913;-74
2023/02/04 10:32:47;;;;;;;;;;;;;;;;;;5071274;28;20154;-74
2023/02/04 10:35:13;;;;;;;;;;;;;;;;;;5072105;28;20019;-73
2023/02/04 10:37:39;;;;;;;;;;;;;;;;;;5071092;28;20008;-73
2023/02/04 10:40:05;;;;;;;;;;;;;;;;;;5070373;28;20019;-74
2023/02/04 10:42:31;;;;;;;;;;;;;;;;;;5072072;28;19909;-73
2023/02/04 10:44:57;;;;;;;;;;;;;;;;;;5073710;28;19916;-74
2023/02/04 10:47:23;;;;;;;;;;;;;;;;;;5074308;28;19931;-73
2023/02/04 10:49:49;;;;;;;;;;;;;;;;;;5073969;28;19915;-73
2023/02/04 10:52:15;;;;;;;;;;;;;;;;;;5074633;28;19952;-73
2023/02/04 10:54:41;;;;;;;;;;;;;;;;;;5078873;28;19917;-73
2023/02/04 10:57:08;;;;;;;;;;;;;;;;;;5094371;28;19954;-73
2023/02/04 10:59:34;;;;;;;;;;;;;;;;;;5094418;28;19908;-74
2023/02/04 11:02:00;;;;;;;;;;;;;;;;;;5094306;28;20260;-74
2023/02/04 11:04:27;;;;;;;;;;;;;;;;;;5095040;28;20275;-73
2023/02/04 11:06:54;;;;;;;;;;;;;;;;;;5094718;28;19940;-72
2023/02/04 11:09:20;;;;;;;;;;;;;;;;;;5092789;28;19919;-74
2023/02/04 11:11:46;;;;;;;;;;;;;;;;;;5094273;28;19916;-74
2023/02/04 11:14:12;;;;;;;;;;;;;;;;;;5094182;28;19916;-73
2023/02/04 11:16:37;;;;;;;;;;;;;;;;;;5092523;28;19908;-74
2023/02/04 11:19:03;;;;;;;;;;;;;;;;;;5092676;28;19951;-72
2023/02/04 11:21:29;;;;;;;;;;;;;;;;;;5094200;28;19915;-72
2023/02/04 11:23:55;;;;;;;;;;;;;;;;;;5093673;28;20419;-73
2023/02/04 11:26:22;;;;;;;;;;;;;;;;;;5094071;28;19977;-72
2023/02/04 11:28:48;;;;;;;;;;;;;;;;;;5094094;28;20405;-73
2023/02/04 11:31:15;;;;;;;;;;;;;;;;;;5093686;28;19912;-73
2023/02/04 11:33:41;;;;;;;;;;;;;;;;;;5093754;28;19965;-73
2023/02/04 11:36:08;;;;;;;;;;;;;;;;;;5093938;28;20381;-73
2023/02/04 11:38:34;;;;;;;;;;;;;;;;;;5093425;28;19908;-73
2023/02/04 11:41:00;;;;;;;;;;;;;;;;;;5092573;28;20403;-73
2023/02/04 11:43:26;;;;;;;;;;;;;;;;;;5093911;28;19912;-74
2023/02/04 11:45:51;;;;;;;;;;;;;;;;;;5093479;28;19912;-74
2023/02/04 11:48:17;;;;;;;;;;;;;;;;;;5092641;28;19908;-74
2023/02/04 11:50:44;;;;;;;;;;;;;;;;;;5094341;28;19923;-73
2023/02/04 11:53:10;;;;;;;;;;;;;;;;;;5097637;28;20364;-74
2023/02/04 11:55:36;;;;;;;;;;;;;;;;;;5098163;28;19942;-74
2023/02/04 11:58:02;;;;;;;;;;;;;;;;;;5097504;28;19922;-74
2023/02/04 12:00:28;;;;;;;;;;;;;;;;;;5098061;28;20276;-74
2023/02/04 12:02:54;;;;;;;;;;;;;;;;;;5097773;28;19908;-74
2023/02/04 12:05:20;;;;;;;;;;;;;;;;;;5097430;28;19938;-74
2023/02/04 12:07:46;;;;;;;;;;;;;;;;;;5097695;28;19908;-74
2023/02/04 12:10:12;;;;;;;;;;;;;;;;;;5096401;28;19915;-74
2023/02/04 12:12:38;;;;;;;;;;;;;;;;;;5097286;28;19908;-74
2023/02/04 12:15:04;;;;;;;;;;;;;;;;;;5096139;28;19916;-73
2023/02/04 12:17:30;;;;;;;;;;;;;;;;;;5097583;28;20003;-74
2023/02/04 12:19:56;;;;;;;;;;;;;;;;;;5097152;28;19912;-73
2023/02/04 12:22:22;;;;;;;;;;;;;;;;;;5097435;28;19908;-74
2023/02/04 12:24:48;;;;;;;;;;;;;;;;;;5097461;28;19909;-73
2023/02/04 12:27:13;;;;;;;;;;;;;;;;;;5096965;28;20261;-73
2023/02/04 12:29:39;;;;;;;;;;;;;;;;;;5097260;28;19918;-74
2023/02/04 12:32:05;;;;;;;;;;;;;;;;;;5097827;28;19951;-74
2023/02/04 12:34:31;;;;;;;;;;;;;;;;;;5096587;28;19920;-74
2023/02/04 12:36:57;;;;;;;;;;;;;;;;;;5097293;28;20360;-74
2023/02/04 12:39:23;;;;;;;;;;;;;;;;;;5097087;28;19912;-74
2023/02/04 12:41:49;;;;;;;;;;;;;;;;;;5096834;28;19951;-74
2023/02/04 12:44:16;;;;;;;;;;;;;;;;;;5097281;28;19915;-74
2023/02/04 12:46:42;;;;;;;;;;;;;;;;;;5097098;28;19961;-75
2023/02/04 12:49:08;;;;;;;;;;;;;;;;;;5096645;28;20010;-73
2023/02/04 12:51:34;;;;;;;;;;;;;;;;;;5097039;28;19916;-74
2023/02/04 12:54:00;;;;;;;;;;;;;;;;;;5096821;28;19920;-74
2023/02/04 12:56:25;;;;;;;;;;;;;;;;;;5096382;28;19989;-74
2023/02/04 12:58:51;;;;;;;;;;;;;;;;;;5096796;28;19961;-74
2023/02/04 13:01:17;;;;;;;;;;;;;;;;;;5096010;28;19908;-74
2023/02/04 13:03:43;;;;;;;;;;;;;;;;;;5096268;28;19930;-74
2023/02/04 13:06:09;;;;;;;;;;;;;;;;;;5096668;28;19953;-74
2023/02/04 13:08:35;;;;;;;;;;;;;;;;;;5096619;28;19908;-73
2023/02/04 13:11:01;;;;;;;;;;;;;;;;;;5096587;28;19916;-73
2023/02/04 13:13:27;;;;;;;;;;;;;;;;;;5096466;28;20326;-74
2023/02/04 13:15:53;;;;;;;;;;;;;;;;;;5096075;28;19916;-74
2023/02/04 13:18:19;;;;;;;;;;;;;;;;;;5096482;28;19915;-74
2023/02/04 13:20:45;;;;;;;;;;;;;;;;;;5096610;28;20009;-74
2023/02/04 13:23:11;;;;;;;;;;;;;;;;;;5095880;28;19915;-74
2023/02/04 13:25:37;;;;;;;;;;;;;;;;;;5095007;28;19914;-74
2023/02/04 13:28:03;;;;;;;;;;;;;;;;;;5096127;28;19958;-74
2023/02/04 13:30:28;;;;;;;;;;;;;;;;;;5094493;28;19908;-74
2023/02/04 13:32:54;;;;;;;;;;;;;;;;;;5095893;28;19909;-74
2023/02/04 13:35:20;;;;;;;;;;;;;;;;;;5096232;28;19920;-74
2023/02/04 13:37:46;;;;;;;;;;;;;;;;;;5095776;28;19947;-74
2023/02/04 13:40:12;;;;;;;;;;;;;;;;;;5095989;28;20004;-74
2023/02/04 13:42:38;;;;;;;;;;;;;;;;;;5095928;28;19977;-74
2023/02/04 13:45:06;;;;;;;;;;;;;;;;;;5094110;28;20006;-74
2023/02/04 13:47:32;;;;;;;;;;;;;;;;;;5094578;28;19912;-74
2023/02/04 13:49:58;;;;;;;;;;;;;;;;;;5095670;28;19962;-74
2023/02/04 13:52:24;;;;;;;;;;;;;;;;;;5095364;28;20006;-74
2023/02/04 13:54:50;;;;;;;;;;;;;;;;;;5095604;28;19927;-74
2023/02/04 13:57:16;;;;;;;;;;;;;;;;;;5095579;28;19915;-74
2023/02/04 14:01:40;;;;;;;;;;;;;;;;;;5111971;27;19916;-75
2023/02/04 14:07:11;;;;;;;;;;;;;;;;;;5111768;27;19916;-74
2023/02/04 14:11:52;;;;;;;;;;;;;;;;;;5131610;27;20375;-75
2023/02/04 14:15:36;;;;;;;;;;;;;;;;;;5112161;27;19922;-75
2023/02/04 14:18:02;;;;;;;;;;;;;;;;;;5111758;28;19915;-75
2023/02/04 14:20:28;;;;;;;;;;;;;;;;;;5111235;28;19969;-73
2023/02/04 14:22:54;;;;;;;;;;;;;;;;;;5111640;28;20292;-73
2023/02/04 14:25:20;;;;;;;;;;;;;;;;;;5111520;28;20351;-73
2023/02/04 14:27:46;;;;;;;;;;;;;;;;;;5111246;28;19960;-73
2023/02/04 14:30:12;;;;;;;;;;;;;;;;;;5112115;28;19908;-73
2023/02/04 14:32:38;;;;;;;;;;;;;;;;;;5110013;28;19908;-73
2023/02/04 14:35:04;;;;;;;;;;;;;;;;;;5111374;28;20085;-73
2023/02/04 14:37:30;;;;;;;;;;;;;;;;;;5111398;28;20253;-73
2023/02/04 14:39:56;;;;;;;;;;;;;;;;;;5111175;28;20471;-73
2023/02/04 14:42:22;;;;;;;;;;;;;;;;;;5110032;28;20318;-73
2023/02/04 14:44:48;;;;;;;;;;;;;;;;;;5111369;28;19915;-73
2023/02/04 14:47:13;;;;;;;;;;;;;;;;;;5111252;28;20340;-73
2023/02/04 14:49:39;;;;;;;;;;;;;;;;;;5111179;28;20275;-73
2023/02/04 14:52:05;;;;;;;;;;;;;;;;;;5111050;28;20360;-73
2023/02/04 14:54:31;;;;;;;;;;;;;;;;;;5109346;28;20279;-73
2023/02/04 14:56:57;;;;;;;;;;;;;;;;;;5109696;28;19914;-73
2023/02/04 14:59:23;;;;;;;;;;;;;;;;;;5110932;28;19908;-73
2023/02/04 15:01:49;;;;;;;;;;;;;;;;;;5110539;28;20333;-73
2023/02/04 15:04:17;;;;;;;;;;;;;;;;;;5109729;28;19912;-73
2023/02/04 15:06:44;;;;;;;;;;;;;;;;;;5111080;28;19908;-73
2023/02/04 15:09:10;;;;;;;;;;;;;;;;;;5110622;28;19909;-73
2023/02/04 15:11:36;;;;;;;;;;;;;;;;;;5111132;28;19915;-73
2023/02/04 15:14:02;;;;;;;;;;;;;;;;;;5110975;28;19934;-73
2023/02/04 15:16:29;;;;;;;;;;;;;;;;;;5110937;28;19914;-73
2023/02/04 15:18:55;;;;;;;;;;;;;;;;;;5110879;28;20003;-73
2023/02/04 15:21:21;;;;;;;;;;;;;;;;;;5110689;28;20276;-73
2023/02/04 15:23:47;;;;;;;;;;;;;;;;;;5110170;28;20292;-73
2023/02/04 15:26:12;;;;;;;;;;;;;;;;;;5100942;28;20390;-74
2023/02/04 15:28:38;;;;;;;;;;;;;;;;;;5096953;28;19914;-74
2023/02/04 15:31:04;;;;;;;;;;;;;;;;;;5096489;28;19912;-74
2023/02/04 15:33:30;;;;;;;;;;;;;;;;;;5095427;28;19912;-73
2023/02/04 15:35:56;;;;;;;;;;;;;;;;;;5096290;28;19913;-74
2023/02/04 15:38:22;;;;;;;;;;;;;;;;;;5096727;28;20045;-73
2023/02/04 15:40:48;;;;;;;;;;;;;;;;;;5096631;28;20369;-73
2023/02/04 15:43:14;;;;;;;;;;;;;;;;;;5096207;28;19916;-73
2023/02/04 15:45:42;;;;;;;;;;;;;;;;;;5096915;28;19973;-73
2023/02/04 15:48:08;;;;;;;;;;;;;;;;;;5096430;28;19915;-73
2023/02/04 15:50:34;;;;;;;;;;;;;;;;;;5096251;28;19912;-73
2023/02/04 15:53:00;;;;;;;;;;;;;;;;;;5095498;28;19934;-73
2023/02/04 15:55:26;;;;;;;;;;;;;;;;;;5096628;28;19923;-73
2023/02/04 15:57:52;;;;;;;;;;;;;;;;;;5096365;28;19954;-73
2023/02/04 16:00:18;;;;;;;;;;;;;;;;;;5096783;28;19959;-73
2023/02/04 16:02:44;;;;;;;;;;;;;;;;;;5096467;28;19908;-74
2023/02/04 16:05:10;;;;;;;;;;;;;;;;;;5096455;28;19908;-73
2023/02/04 16:07:36;;;;;;;;;;;;;;;;;;5101179;28;19908;-75
2023/02/04 16:10:01;;;;;;;;;;;;;;;;;;5096550;28;19982;-74
2023/02/04 16:12:28;;;;;;;;;;;;;;;;;;5094553;28;19908;-75
2023/02/04 16:14:54;;;;;;;;;;;;;;;;;;5095862;28;20015;-75
2023/02/04 16:17:20;;;;;;;;;;;;;;;;;;5096074;28;19988;-74
2023/02/04 16:19:46;;;;;;;;;;;;;;;;;;5094316;28;19931;-75
2023/02/04 16:22:12;;;;;;;;;;;;;;;;;;5095950;28;19908;-75
2023/02/04 16:24:38;;;;;;;;;;;;;;;;;;5096055;28;19995;-74
2023/02/04 16:27:04;;;;;;;;;;;;;;;;;;5095745;28;19970;-74
2023/02/04 16:29:29;;;;;;;;;;;;;;;;;;5094767;28;19908;-75
2023/02/04 16:31:56;;;;;;;;;;;;;;;;;;5095953;28;19908;-75
2023/02/04 16:34:22;;;;;;;;;;;;;;;;;;5096698;28;19927;-74
2023/02/04 16:36:48;;;;;;;;;;;;;;;;;;5094300;28;19908;-73
2023/02/04 16:39:14;;;;;;;;;;;;;;;;;;5096300;28;19920;-74
2023/02/04 16:41:40;;;;;;;;;;;;;;;;;;5109446;28;19908;-73
2023/02/04 16:44:06;;;;;;;;;;;;;;;;;;5114368;28;19908;-74